sensor_id;sensor_type;location;lat;lon;timestamp;pressure;altitude;pressure_sealevel;temperature;humidity
37078;BME280;22989;55.998;37.212;2023-05-11T00:00:15;114436.31;;;-145.39;43.58
37078;BME280;22989;55.998;37.212;2023-05-11T00:02:41;114436.31;;;-145.39;43.45
37078;BME280;22989;55.998;37.212;2023-05-11T00:05:06;114436.31;;;-145.39;43.27
37078;BME280;22989;55.998;37.212;2023-05-11T00:07:32;114690.78;;;-145.39;43.19
37078;BME280;22989;55.998;37.212;2023-05-11T00:09:57;114690.78;;;-145.39;43.27
37078;BME280;22989;55.998;37.212;2023-05-11T00:12:23;114690.78;;;-145.39;43.16
37078;BME280;22989;55.998;37.212;2023-05-11T00:14:48;114690.78;;;-145.39;42.82
37078;BME280;22989;55.998;37.212;2023-05-11T00:17:13;114690.78;;;-145.39;42.52
37078;BME280;22989;55.998;37.212;2023-05-11T00:19:39;114690.78;;;-145.39;42.29
37078;BME280;22989;55.998;37.212;2023-05-11T00:22:04;114690.78;;;-145.39;42.06
37078;BME280;22989;55.998;37.212;2023-05-11T00:24:30;114690.78;;;-145.39;41.99
37078;BME280;22989;55.998;37.212;2023-05-11T00:26:55;114690.78;;;-145.39;42.23
37078;BME280;22989;55.998;37.212;2023-05-11T00:29:20;114690.78;;;-145.39;42.47
37078;BME280;22989;55.998;37.212;2023-05-11T00:31:46;114690.78;;;-145.39;42.71
37078;BME280;22989;55.998;37.212;2023-05-11T00:34:13;114690.78;;;-145.39;42.92
37078;BME280;22989;55.998;37.212;2023-05-11T00:36:38;114945.25;;;-145.39;43.15
37078;BME280;22989;55.998;37.212;2023-05-11T00:39:04;114945.25;;;-145.39;43.24
37078;BME280;22989;55.998;37.212;2023-05-11T00:41:29;114945.25;;;-145.39;43.12
37078;BME280;22989;55.998;37.212;2023-05-11T00:43:55;114945.25;;;-145.39;42.89
37078;BME280;22989;55.998;37.212;2023-05-11T00:46:20;114690.78;;;-145.39;42.96
37078;BME280;22989;55.998;37.212;2023-05-11T00:48:46;114690.78;;;-145.39;42.66
37078;BME280;22989;55.998;37.212;2023-05-11T00:51:12;114690.78;;;-145.39;42.71
37078;BME280;22989;55.998;37.212;2023-05-11T00:53:38;114690.78;;;-145.39;42.97
37078;BME280;22989;55.998;37.212;2023-05-11T00:56:03;114690.78;;;-145.39;43.14
37078;BME280;22989;55.998;37.212;2023-05-11T00:58:29;114690.78;;;-145.39;42.84
37078;BME280;22989;55.998;37.212;2023-05-11T01:00:55;114690.78;;;-145.39;42.49
37078;BME280;22989;55.998;37.212;2023-05-11T01:03:20;114690.78;;;-145.39;42.15
37078;BME280;22989;55.998;37.212;2023-05-11T01:05:56;114690.78;;;-145.39;42.28
37078;BME280;22989;55.998;37.212;2023-05-11T01:08:35;114690.78;;;-145.39;41.86
37078;BME280;22989;55.998;37.212;2023-05-11T01:13:33;114690.78;;;-145.39;41.31
37078;BME280;22989;55.998;37.212;2023-05-11T01:16:05;114690.78;;;-145.39;41.05
37078;BME280;22989;55.998;37.212;2023-05-11T01:21:04;114690.78;;;-145.39;40.89
37078;BME280;22989;55.998;37.212;2023-05-11T01:26:09;114690.78;;;-145.39;41.32
37078;BME280;22989;55.998;37.212;2023-05-11T01:31:09;114945.25;;;-145.39;42.24
37078;BME280;22989;55.998;37.212;2023-05-11T01:33:36;114945.25;;;-145.39;42.58
37078;BME280;22989;55.998;37.212;2023-05-11T01:36:07;115199.75;;;-145.39;43.23
37078;BME280;22989;55.998;37.212;2023-05-11T01:38:34;115199.75;;;-145.39;43.63
37078;BME280;22989;55.998;37.212;2023-05-11T01:41:02;115199.75;;;-145.39;43.63
37078;BME280;22989;55.998;37.212;2023-05-11T01:43:30;115199.75;;;-145.39;43.25
37078;BME280;22989;55.998;37.212;2023-05-11T01:45:59;115454.28;;;-145.39;43.34
37078;BME280;22989;55.998;37.212;2023-05-11T01:48:27;115454.28;;;-145.39;43.71
37078;BME280;22989;55.998;37.212;2023-05-11T01:50:53;115454.28;;;-145.39;43.98
37078;BME280;22989;55.998;37.212;2023-05-11T01:53:20;115708.78;;;-145.39;44.04
37078;BME280;22989;55.998;37.212;2023-05-11T01:55:46;115454.28;;;-145.39;43.47
37078;BME280;22989;55.998;37.212;2023-05-11T01:58:14;115454.28;;;-145.39;42.99
37078;BME280;22989;55.998;37.212;2023-05-11T02:00:42;115454.28;;;-145.39;42.59
37078;BME280;22989;55.998;37.212;2023-05-11T02:03:09;115454.28;;;-145.39;42.38
37078;BME280;22989;55.998;37.212;2023-05-11T02:05:35;115454.28;;;-145.39;42.28
37078;BME280;22989;55.998;37.212;2023-05-11T02:08:01;115708.78;;;-145.39;41.88
37078;BME280;22989;55.998;37.212;2023-05-11T02:10:29;115708.78;;;-145.39;41.67
37078;BME280;22989;55.998;37.212;2023-05-11T02:12:57;115708.78;;;-145.39;41.86
37078;BME280;22989;55.998;37.212;2023-05-11T02:15:24;115708.78;;;-145.39;41.63
37078;BME280;22989;55.998;37.212;2023-05-11T02:17:51;115708.78;;;-145.39;41.26
37078;BME280;22989;55.998;37.212;2023-05-11T02:20:17;115708.78;;;-145.39;40.95
37078;BME280;22989;55.998;37.212;2023-05-11T02:22:44;115708.78;;;-145.39;40.29
37078;BME280;22989;55.998;37.212;2023-05-11T02:25:10;115708.78;;;-145.39;39.58
37078;BME280;22989;55.998;37.212;2023-05-11T02:27:37;115454.28;;;-145.39;39.08
37078;BME280;22989;55.998;37.212;2023-05-11T02:30:03;115454.28;;;-145.39;38.75
37078;BME280;22989;55.998;37.212;2023-05-11T02:32:29;115454.28;;;-145.39;38.35
37078;BME280;22989;55.998;37.212;2023-05-11T02:35:00;115454.28;;;-145.39;38.22
37078;BME280;22989;55.998;37.212;2023-05-11T02:37:29;115454.28;;;-145.39;38.02
37078;BME280;22989;55.998;37.212;2023-05-11T02:39:58;115708.78;;;-145.39;37.93
37078;BME280;22989;55.998;37.212;2023-05-11T02:42:25;115708.78;;;-145.39;37.80
37078;BME280;22989;55.998;37.212;2023-05-11T02:45:00;115708.78;;;-145.39;37.82
37078;BME280;22989;55.998;37.212;2023-05-11T02:47:27;115708.78;;;-145.39;37.69
37078;BME280;22989;55.998;37.212;2023-05-11T02:49:54;115708.78;;;-145.39;37.47
37078;BME280;22989;55.998;37.212;2023-05-11T02:52:24;115708.78;;;-145.39;37.42
37078;BME280;22989;55.998;37.212;2023-05-11T02:54:52;115708.78;;;-145.39;37.28
37078;BME280;22989;55.998;37.212;2023-05-11T02:57:19;115708.78;;;-145.39;37.03
37078;BME280;22989;55.998;37.212;2023-05-11T02:59:45;115708.78;;;-145.39;36.95
37078;BME280;22989;55.998;37.212;2023-05-11T03:02:11;115963.34;;;-145.39;36.81
37078;BME280;22989;55.998;37.212;2023-05-11T03:04:37;115963.34;;;-145.39;36.56
37078;BME280;22989;55.998;37.212;2023-05-11T03:07:03;115963.34;;;-145.39;36.56
37078;BME280;22989;55.998;37.212;2023-05-11T03:09:29;115963.34;;;-145.39;36.21
37078;BME280;22989;55.998;37.212;2023-05-11T03:11:54;115963.34;;;-145.39;35.81
37078;BME280;22989;55.998;37.212;2023-05-11T03:14:21;116217.91;;;-145.39;35.34
37078;BME280;22989;55.998;37.212;2023-05-11T03:16:46;116217.91;;;-145.39;35.30
37078;BME280;22989;55.998;37.212;2023-05-11T03:19:13;116217.91;;;-145.39;35.08
37078;BME280;22989;55.998;37.212;2023-05-11T03:21:40;115963.34;;;-145.39;34.84
37078;BME280;22989;55.998;37.212;2023-05-11T03:24:05;115963.34;;;-145.39;34.88
37078;BME280;22989;55.998;37.212;2023-05-11T03:26:31;115963.34;;;-145.39;34.77
37078;BME280;22989;55.998;37.212;2023-05-11T03:28:58;115963.34;;;-145.39;34.57
37078;BME280;22989;55.998;37.212;2023-05-11T03:31:24;116217.91;;;-145.39;34.33
37078;BME280;22989;55.998;37.212;2023-05-11T03:33:50;116217.91;;;-145.39;34.23
37078;BME280;22989;55.998;37.212;2023-05-11T03:36:15;116217.91;;;-145.39;34.19
37078;BME280;22989;55.998;37.212;2023-05-11T03:38:42;116472.47;;;-145.39;33.88
37078;BME280;22989;55.998;37.212;2023-05-11T03:41:12;116472.47;;;-145.39;34.01
37078;BME280;22989;55.998;37.212;2023-05-11T03:43:40;116727.06;;;-145.39;34.68
37078;BME280;22989;55.998;37.212;2023-05-11T03:46:06;116727.06;;;-145.39;34.37
37078;BME280;22989;55.998;37.212;2023-05-11T03:48:32;116727.06;;;-145.39;33.66
37078;BME280;22989;55.998;37.212;2023-05-11T03:50:58;116472.47;;;-145.39;33.22
37078;BME280;22989;55.998;37.212;2023-05-11T03:53:24;116472.47;;;-145.39;33.20
37078;BME280;22989;55.998;37.212;2023-05-11T03:55:49;116472.47;;;-145.39;33.23
37078;BME280;22989;55.998;37.212;2023-05-11T03:58:16;116472.47;;;-145.39;33.29
37078;BME280;22989;55.998;37.212;2023-05-11T04:00:42;116727.06;;;-145.39;33.49
37078;BME280;22989;55.998;37.212;2023-05-11T04:03:08;116727.06;;;-145.39;33.27
37078;BME280;22989;55.998;37.212;2023-05-11T04:05:34;116727.06;;;-145.39;32.89
37078;BME280;22989;55.998;37.212;2023-05-11T04:08:02;116727.06;;;-145.39;32.54
37078;BME280;22989;55.998;37.212;2023-05-11T04:10:28;116727.06;;;-145.39;32.25
37078;BME280;22989;55.998;37.212;2023-05-11T04:12:55;116727.06;;;-145.39;31.82
37078;BME280;22989;55.998;37.212;2023-05-11T04:15:20;116727.06;;;-145.39;31.78
37078;BME280;22989;55.998;37.212;2023-05-11T04:17:46;116727.06;;;-145.39;31.80
37078;BME280;22989;55.998;37.212;2023-05-11T04:20:12;116981.66;;;-145.39;31.83
37078;BME280;22989;55.998;37.212;2023-05-11T04:22:38;116981.66;;;-145.39;31.94
37078;BME280;22989;55.998;37.212;2023-05-11T04:25:03;116981.66;;;-145.39;31.90
37078;BME280;22989;55.998;37.212;2023-05-11T04:27:32;116981.66;;;-145.39;31.98
37078;BME280;22989;55.998;37.212;2023-05-11T04:29:58;116981.66;;;-145.39;31.66
37078;BME280;22989;55.998;37.212;2023-05-11T04:32:23;116981.66;;;-145.39;30.86
37078;BME280;22989;55.998;37.212;2023-05-11T04:34:49;116981.66;;;-145.39;30.84
37078;BME280;22989;55.998;37.212;2023-05-11T04:37:19;116983.66;;;-145.39;31.18
37078;BME280;22989;55.998;37.212;2023-05-11T04:39:45;116983.66;;;-145.39;30.86
37078;BME280;22989;55.998;37.212;2023-05-11T04:42:10;116983.66;;;-145.39;30.79
37078;BME280;22989;55.998;37.212;2023-05-11T04:44:36;116983.66;;;-145.39;30.55
37078;BME280;22989;55.998;37.212;2023-05-11T04:47:02;116983.66;;;-145.39;30.08
37078;BME280;22989;55.998;37.212;2023-05-11T04:49:27;116983.66;;;-145.39;29.81
37078;BME280;22989;55.998;37.212;2023-05-11T04:51:54;116983.66;;;-145.39;29.81
37078;BME280;22989;55.998;37.212;2023-05-11T04:54:19;116983.66;;;-145.39;29.78
37078;BME280;22989;55.998;37.212;2023-05-11T04:56:45;116981.66;;;-145.39;29.68
37078;BME280;22989;55.998;37.212;2023-05-11T04:59:12;116981.66;;;-145.39;29.53
37078;BME280;22989;55.998;37.212;2023-05-11T05:01:38;116981.66;;;-145.39;29.71
37078;BME280;22989;55.998;37.212;2023-05-11T05:04:04;116981.66;;;-145.39;29.45
37078;BME280;22989;55.998;37.212;2023-05-11T05:06:29;116983.66;;;-145.39;29.54
37078;BME280;22989;55.998;37.212;2023-05-11T05:08:56;116981.66;;;-145.39;29.53
37078;BME280;22989;55.998;37.212;2023-05-11T05:11:21;116981.66;;;-145.39;29.70
37078;BME280;22989;55.998;37.212;2023-05-11T05:13:49;116981.66;;;-145.39;29.78
37078;BME280;22989;55.998;37.212;2023-05-11T05:16:14;116983.66;;;-145.39;29.46
37078;BME280;22989;55.998;37.212;2023-05-11T05:18:40;116983.66;;;-145.39;29.40
37078;BME280;22989;55.998;37.212;2023-05-11T05:21:05;116983.66;;;-145.39;29.11
37078;BME280;22989;55.998;37.212;2023-05-11T05:23:31;116983.66;;;-145.39;29.56
37078;BME280;22989;55.998;37.212;2023-05-11T05:25:57;116983.66;;;-145.39;29.41
37078;BME280;22989;55.998;37.212;2023-05-11T05:28:22;116983.66;;;-145.39;29.66
37078;BME280;22989;55.998;37.212;2023-05-11T05:30:48;116983.66;;;-145.39;29.25
37078;BME280;22989;55.998;37.212;2023-05-11T05:33:14;116983.66;;;-145.39;29.13
37078;BME280;22989;55.998;37.212;2023-05-11T05:35:39;116983.66;;;-145.39;29.39
37078;BME280;22989;55.998;37.212;2023-05-11T05:38:06;116983.66;;;-145.39;29.56
37078;BME280;22989;55.998;37.212;2023-05-11T05:40:32;116983.66;;;-145.39;29.07
37078;BME280;22989;55.998;37.212;2023-05-11T05:43:01;116983.66;;;-145.39;28.59
37078;BME280;22989;55.998;37.212;2023-05-11T05:45:28;116983.66;;;-145.39;28.30
37078;BME280;22989;55.998;37.212;2023-05-11T05:47:55;116983.66;;;-145.39;27.66
37078;BME280;22989;55.998;37.212;2023-05-11T05:50:21;116983.66;;;-145.39;27.45
37078;BME280;22989;55.998;37.212;2023-05-11T05:52:47;116983.66;;;-145.39;27.15
37078;BME280;22989;55.998;37.212;2023-05-11T05:55:13;116983.66;;;-145.39;26.93
37078;BME280;22989;55.998;37.212;2023-05-11T05:57:39;116983.66;;;-145.39;26.83
37078;BME280;22989;55.998;37.212;2023-05-11T06:00:06;116983.66;;;-145.39;26.68
37078;BME280;22989;55.998;37.212;2023-05-11T06:02:38;116983.66;;;-145.39;26.51
37078;BME280;22989;55.998;37.212;2023-05-11T06:05:04;116983.66;;;-145.39;26.43
37078;BME280;22989;55.998;37.212;2023-05-11T06:07:30;116983.66;;;-145.39;26.02
37078;BME280;22989;55.998;37.212;2023-05-11T06:09:55;116983.66;;;-145.39;25.75
37078;BME280;22989;55.998;37.212;2023-05-11T06:12:21;116983.66;;;-145.39;26.05
37078;BME280;22989;55.998;37.212;2023-05-11T06:14:48;116983.66;;;-145.39;25.24
37078;BME280;22989;55.998;37.212;2023-05-11T06:17:16;116983.66;;;-145.39;25.85
37078;BME280;22989;55.998;37.212;2023-05-11T06:19:43;116983.66;;;-145.39;25.31
37078;BME280;22989;55.998;37.212;2023-05-11T06:22:09;116983.66;;;-145.39;25.55
37078;BME280;22989;55.998;37.212;2023-05-11T06:24:34;116983.66;;;-145.39;25.51
37078;BME280;22989;55.998;37.212;2023-05-11T06:27:00;116983.66;;;-145.39;25.20
37078;BME280;22989;55.998;37.212;2023-05-11T06:29:25;116983.66;;;-145.39;24.86
37078;BME280;22989;55.998;37.212;2023-05-11T06:31:51;116983.66;;;-145.39;24.66
37078;BME280;22989;55.998;37.212;2023-05-11T06:34:19;116983.66;;;-145.39;23.95
37078;BME280;22989;55.998;37.212;2023-05-11T06:36:45;116983.66;;;-145.39;24.05
37078;BME280;22989;55.998;37.212;2023-05-11T06:39:11;116983.66;;;-145.39;24.17
37078;BME280;22989;55.998;37.212;2023-05-11T06:41:36;116983.66;;;-145.39;24.12
37078;BME280;22989;55.998;37.212;2023-05-11T06:44:02;116983.66;;;-145.39;23.59
37078;BME280;22989;55.998;37.212;2023-05-11T06:46:35;116983.66;;;-145.39;23.35
37078;BME280;22989;55.998;37.212;2023-05-11T06:49:00;116983.66;;;-145.39;22.53
37078;BME280;22989;55.998;37.212;2023-05-11T06:51:26;116983.66;;;-145.39;22.53
37078;BME280;22989;55.998;37.212;2023-05-11T06:53:51;116983.66;;;-145.39;22.53
37078;BME280;22989;55.998;37.212;2023-05-11T06:56:17;116983.66;;;-145.39;22.31
37078;BME280;22989;55.998;37.212;2023-05-11T06:58:42;116983.66;;;-145.39;22.36
37078;BME280;22989;55.998;37.212;2023-05-11T07:01:07;116983.66;;;-145.39;22.91
37078;BME280;22989;55.998;37.212;2023-05-11T07:03:33;116983.66;;;-145.39;23.26
37078;BME280;22989;55.998;37.212;2023-05-11T07:05:59;116983.66;;;-145.39;23.22
37078;BME280;22989;55.998;37.212;2023-05-11T07:08:24;116983.66;;;-145.39;23.09
37078;BME280;22989;55.998;37.212;2023-05-11T07:10:50;116983.66;;;-145.39;22.51
37078;BME280;22989;55.998;37.212;2023-05-11T07:13:16;116983.66;;;-145.39;23.11
37078;BME280;22989;55.998;37.212;2023-05-11T07:15:41;116983.66;;;-145.39;22.46
37078;BME280;22989;55.998;37.212;2023-05-11T07:18:06;116983.66;;;-145.39;22.45
37078;BME280;22989;55.998;37.212;2023-05-11T07:20:32;116983.66;;;-145.39;22.40
37078;BME280;22989;55.998;37.212;2023-05-11T07:23:00;116983.66;;;-145.39;22.30
37078;BME280;22989;55.998;37.212;2023-05-11T07:25:26;116983.66;;;-145.39;21.94
37078;BME280;22989;55.998;37.212;2023-05-11T07:27:51;116983.66;;;-145.39;22.26
37078;BME280;22989;55.998;37.212;2023-05-11T07:30:16;116983.66;;;-145.39;22.25
37078;BME280;22989;55.998;37.212;2023-05-11T07:32:42;116983.66;;;-145.39;21.84
37078;BME280;22989;55.998;37.212;2023-05-11T07:35:07;116983.66;;;-145.39;22.23
37078;BME280;22989;55.998;37.212;2023-05-11T07:37:36;116983.66;;;-145.39;22.35
37078;BME280;22989;55.998;37.212;2023-05-11T07:40:01;116983.66;;;-145.39;21.88
37078;BME280;22989;55.998;37.212;2023-05-11T07:42:27;116983.66;;;-145.39;22.27
37078;BME280;22989;55.998;37.212;2023-05-11T07:44:52;116983.66;;;-145.39;22.43
37078;BME280;22989;55.998;37.212;2023-05-11T07:47:18;116981.66;;;-145.39;23.04
37078;BME280;22989;55.998;37.212;2023-05-11T07:49:45;116981.66;;;-145.39;23.86
37078;BME280;22989;55.998;37.212;2023-05-11T07:52:12;116981.66;;;-145.39;23.92
37078;BME280;22989;55.998;37.212;2023-05-11T07:54:37;116981.66;;;-145.39;23.59
37078;BME280;22989;55.998;37.212;2023-05-11T07:57:04;116981.66;;;-145.39;23.73
37078;BME280;22989;55.998;37.212;2023-05-11T07:59:29;116981.66;;;-145.39;24.04
37078;BME280;22989;55.998;37.212;2023-05-11T08:01:55;116727.06;;;-145.39;24.04
37078;BME280;22989;55.998;37.212;2023-05-11T08:04:20;116727.06;;;-145.39;24.39
37078;BME280;22989;55.998;37.212;2023-05-11T08:06:46;116727.06;;;-145.39;24.27
37078;BME280;22989;55.998;37.212;2023-05-11T08:09:11;116981.66;;;-145.39;24.06
37078;BME280;22989;55.998;37.212;2023-05-11T08:11:37;116981.66;;;-145.39;24.01
37078;BME280;22989;55.998;37.212;2023-05-11T08:14:02;116981.66;;;-145.39;24.19
37078;BME280;22989;55.998;37.212;2023-05-11T08:16:28;116727.06;;;-145.39;23.81
37078;BME280;22989;55.998;37.212;2023-05-11T08:18:53;116727.06;;;-145.39;24.25
37078;BME280;22989;55.998;37.212;2023-05-11T08:21:19;116472.47;;;-145.39;24.72
37078;BME280;22989;55.998;37.212;2023-05-11T08:23:44;116472.47;;;-145.39;24.74
37078;BME280;22989;55.998;37.212;2023-05-11T08:26:09;116472.47;;;-145.39;24.74
37078;BME280;22989;55.998;37.212;2023-05-11T08:28:35;116472.47;;;-145.39;24.98
37078;BME280;22989;55.998;37.212;2023-05-11T08:31:00;116472.47;;;-145.39;24.71
37078;BME280;22989;55.998;37.212;2023-05-11T08:33:26;116472.47;;;-145.39;24.91
37078;BME280;22989;55.998;37.212;2023-05-11T08:35:51;116472.47;;;-145.39;25.04
37078;BME280;22989;55.998;37.212;2023-05-11T08:38:17;116727.06;;;-145.39;24.83
37078;BME280;22989;55.998;37.212;2023-05-11T08:40:45;116727.06;;;-145.39;24.74
37078;BME280;22989;55.998;37.212;2023-05-11T08:43:13;116727.06;;;-145.39;24.68
37078;BME280;22989;55.998;37.212;2023-05-11T08:45:40;116981.66;;;-145.39;24.64
37078;BME280;22989;55.998;37.212;2023-05-11T08:48:05;116983.66;;;-145.39;24.37
37078;BME280;22989;55.998;37.212;2023-05-11T08:50:31;116983.66;;;-145.39;23.64
37078;BME280;22989;55.998;37.212;2023-05-11T08:52:57;116981.66;;;-145.39;23.38
37078;BME280;22989;55.998;37.212;2023-05-11T08:55:22;116981.66;;;-145.39;23.67
37078;BME280;22989;55.998;37.212;2023-05-11T08:57:49;116727.06;;;-145.39;24.01
37078;BME280;22989;55.998;37.212;2023-05-11T09:00:15;116472.47;;;-145.39;24.42
37078;BME280;22989;55.998;37.212;2023-05-11T09:02:41;116472.47;;;-145.39;24.69
37078;BME280;22989;55.998;37.212;2023-05-11T09:05:07;116217.91;;;-145.39;24.74
37078;BME280;22989;55.998;37.212;2023-05-11T09:07:33;116217.91;;;-145.39;25.01
37078;BME280;22989;55.998;37.212;2023-05-11T09:10:00;116472.47;;;-145.39;25.12
37078;BME280;22989;55.998;37.212;2023-05-11T09:12:26;116472.47;;;-145.39;24.96
37078;BME280;22989;55.998;37.212;2023-05-11T09:14:53;116727.06;;;-145.39;24.86
37078;BME280;22989;55.998;37.212;2023-05-11T09:17:19;116472.47;;;-145.39;24.77
37078;BME280;22989;55.998;37.212;2023-05-11T09:19:57;116472.47;;;-145.39;24.96
37078;BME280;22989;55.998;37.212;2023-05-11T09:22:24;116472.47;;;-145.39;24.50
37078;BME280;22989;55.998;37.212;2023-05-11T09:24:49;116727.06;;;-145.39;24.48
37078;BME280;22989;55.998;37.212;2023-05-11T09:27:15;116727.06;;;-145.39;24.92
37078;BME280;22989;55.998;37.212;2023-05-11T09:29:40;116472.47;;;-145.39;25.90
37078;BME280;22989;55.998;37.212;2023-05-11T09:32:06;115708.78;;;-145.39;27.00
37078;BME280;22989;55.998;37.212;2023-05-11T09:34:31;115454.28;;;-145.39;28.15
37078;BME280;22989;55.998;37.212;2023-05-11T09:36:57;115963.34;;;-145.39;34.46
37078;BME280;22989;55.998;37.212;2023-05-11T09:39:33;115963.34;;;-145.39;39.73
37078;BME280;22989;55.998;37.212;2023-05-11T09:42:14;116217.91;;;-145.39;43.93
37078;BME280;22989;55.998;37.212;2023-05-11T09:44:40;116217.91;;;-145.39;45.36
37078;BME280;22989;55.998;37.212;2023-05-11T09:47:10;116472.47;;;-145.39;45.88
37078;BME280;22989;55.998;37.212;2023-05-11T09:49:37;116727.06;;;-145.39;46.61
37078;BME280;22989;55.998;37.212;2023-05-11T09:52:03;116983.66;;;-145.39;47.65
37078;BME280;22989;55.998;37.212;2023-05-11T09:54:28;116983.66;;;-145.39;48.57
37078;BME280;22989;55.998;37.212;2023-05-11T09:56:54;116983.66;;;-145.39;49.22
37078;BME280;22989;55.998;37.212;2023-05-11T09:59:39;116983.66;;;-145.39;49.84
37078;BME280;22989;55.998;37.212;2023-05-11T10:05:00;116983.66;;;-145.39;50.83
37078;BME280;22989;55.998;37.212;2023-05-11T10:07:29;116983.66;;;-145.39;51.12
37078;BME280;22989;55.998;37.212;2023-05-11T10:09:56;116983.66;;;-145.39;51.54
37078;BME280;22989;55.998;37.212;2023-05-11T10:12:22;116983.66;;;-145.39;51.49
37078;BME280;22989;55.998;37.212;2023-05-11T10:14:50;116983.66;;;-145.39;51.34
37078;BME280;22989;55.998;37.212;2023-05-11T10:17:15;116983.66;;;-145.39;51.40
37078;BME280;22989;55.998;37.212;2023-05-11T10:19:41;116983.66;;;-145.39;51.28
37078;BME280;22989;55.998;37.212;2023-05-11T10:22:07;116983.66;;;-145.39;51.19
37078;BME280;22989;55.998;37.212;2023-05-11T10:24:32;116983.66;;;-145.39;50.54
37078;BME280;22989;55.998;37.212;2023-05-11T10:26:58;116983.66;;;-145.39;49.65
37078;BME280;22989;55.998;37.212;2023-05-11T10:29:24;116983.66;;;-145.39;46.79
37078;BME280;22989;55.998;37.212;2023-05-11T10:31:50;116983.66;;;-145.39;44.89
37078;BME280;22989;55.998;37.212;2023-05-11T10:34:17;116983.66;;;-145.39;43.93
37078;BME280;22989;55.998;37.212;2023-05-11T10:36:44;116983.66;;;-145.39;43.05
37078;BME280;22989;55.998;37.212;2023-05-11T10:39:10;116983.66;;;-145.39;41.93
37078;BME280;22989;55.998;37.212;2023-05-11T10:54:46;116983.66;;;-145.39;39.11
37078;BME280;22989;55.998;37.212;2023-05-11T11:00:12;116983.66;;;-145.39;37.14
37078;BME280;22989;55.998;37.212;2023-05-11T11:02:44;116983.66;;;-145.39;37.18
37078;BME280;22989;55.998;37.212;2023-05-11T11:05:10;116983.66;;;-145.39;36.57
37078;BME280;22989;55.998;37.212;2023-05-11T11:07:58;116983.66;;;-145.39;36.37
37078;BME280;22989;55.998;37.212;2023-05-11T11:10:30;116983.66;;;-145.39;35.74
37078;BME280;22989;55.998;37.212;2023-05-11T11:13:15;116983.66;;;-145.39;34.19
37078;BME280;22989;55.998;37.212;2023-05-11T11:20:47;116983.66;;;-145.39;33.57
37078;BME280;22989;55.998;37.212;2023-05-11T11:25:57;116983.66;;;-145.39;32.82
37078;BME280;22989;55.998;37.212;2023-05-11T11:28:23;116983.66;;;-145.39;30.56
37078;BME280;22989;55.998;37.212;2023-05-11T11:31:09;116983.66;;;-145.39;31.15
37078;BME280;22989;55.998;37.212;2023-05-11T11:33:34;116983.66;;;-145.39;28.54
37078;BME280;22989;55.998;37.212;2023-05-11T11:35:59;116983.66;;;-145.39;29.01
37078;BME280;22989;55.998;37.212;2023-05-11T11:38:25;116983.66;;;-145.39;28.11
37078;BME280;22989;55.998;37.212;2023-05-11T11:40:51;116983.66;;;-145.39;29.68
37078;BME280;22989;55.998;37.212;2023-05-11T11:43:21;116983.66;;;-145.39;30.48
37078;BME280;22989;55.998;37.212;2023-05-11T11:48:15;111892.56;;;-145.39;31.45
37078;BME280;22989;55.998;37.212;2023-05-11T11:50:45;115963.34;;;-145.39;30.33
37078;BME280;22989;55.998;37.212;2023-05-11T11:53:12;114181.88;;;-145.39;30.16
37078;BME280;22989;55.998;37.212;2023-05-11T11:55:57;115454.28;;;-145.39;29.50
37078;BME280;22989;55.998;37.212;2023-05-11T12:01:16;114436.31;;;-145.39;29.03
37078;BME280;22989;55.998;37.212;2023-05-11T12:03:42;114945.25;;;-145.39;29.88
37078;BME280;22989;55.998;37.212;2023-05-11T12:06:09;115454.28;;;-145.39;30.53
37078;BME280;22989;55.998;37.212;2023-05-11T12:08:35;112909.88;;;-145.39;30.93
37078;BME280;22989;55.998;37.212;2023-05-11T12:11:02;113418.63;;;-145.39;31.02
37078;BME280;22989;55.998;37.212;2023-05-11T12:13:27;113673.03;;;-145.39;31.02
37078;BME280;22989;55.998;37.212;2023-05-11T12:18:38;114945.25;;;-145.39;30.63
37078;BME280;22989;55.998;37.212;2023-05-11T12:21:03;115708.78;;;-145.39;30.53
37078;BME280;22989;55.998;37.212;2023-05-11T12:23:29;116217.91;;;-145.39;30.65
37078;BME280;22989;55.998;37.212;2023-05-11T12:26:02;114690.78;;;-145.39;30.68
37078;BME280;22989;55.998;37.212;2023-05-11T12:28:27;116727.06;;;-145.39;30.42
37078;BME280;22989;55.998;37.212;2023-05-11T12:30:56;115708.78;;;-145.39;30.37
37078;BME280;22989;55.998;37.212;2023-05-11T12:33:22;116983.66;;;-145.39;30.43
37078;BME280;22989;55.998;37.212;2023-05-11T12:35:54;116727.06;;;-145.39;30.60
37078;BME280;22989;55.998;37.212;2023-05-11T12:38:20;116472.47;;;-145.39;30.40
37078;BME280;22989;55.998;37.212;2023-05-11T12:40:49;116983.66;;;-145.39;29.66
37078;BME280;22989;55.998;37.212;2023-05-11T12:43:15;116983.66;;;-145.39;29.48
37078;BME280;22989;55.998;37.212;2023-05-11T12:45:41;116983.66;;;-145.39;29.48
37078;BME280;22989;55.998;37.212;2023-05-11T12:48:07;116983.66;;;-145.39;29.62
37078;BME280;22989;55.998;37.212;2023-05-11T12:50:38;116981.66;;;-145.39;29.64
37078;BME280;22989;55.998;37.212;2023-05-11T12:53:13;116727.06;;;-145.39;29.84
37078;BME280;22989;55.998;37.212;2023-05-11T12:55:40;116983.66;;;-145.39;29.78
37078;BME280;22989;55.998;37.212;2023-05-11T12:58:15;116981.66;;;-145.39;29.78
37078;BME280;22989;55.998;37.212;2023-05-11T13:00:56;116983.66;;;-145.39;29.83
37078;BME280;22989;55.998;37.212;2023-05-11T13:03:26;116983.66;;;-145.39;29.98